sensor_id;sensor_type;location;lat;lon;timestamp;pressure;altitude;pressure_sealevel;temperature;humidity
48846;BME280;34665;51.886;5.436;2022-12-08T00:02:16;100965.59;;;8.17;100.00
48846;BME280;34665;51.886;5.436;2022-12-08T00:04:42;100959.94;;;8.43;100.00
48846;BME280;34665;51.886;5.436;2022-12-08T00:07:26;100958.72;;;8.54;100.00
48846;BME280;34665;51.886;5.436;2022-12-08T00:10:09;100944.91;;;8.27;100.00
48846;BME280;34665;51.886;5.436;2022-12-08T00:12:35;100941.00;;;8.38;100.00
48846;BME280;34665;51.886;5.436;2022-12-08T00:15:00;100933.44;;;8.42;100.00
48846;BME280;34665;51.886;5.436;2022-12-08T00:17:25;100927.72;;;8.30;100.00
48846;BME280;34665;51.886;5.436;2022-12-08T00:19:51;100926.78;;;8.46;100.00
48846;BME280;34665;51.886;5.436;2022-12-08T00:22:17;100917.81;;;7.92;100.00
48846;BME280;34665;51.886;5.436;2022-12-08T00:24:43;100911.88;;;8.13;100.00
48846;BME280;34665;51.886;5.436;2022-12-08T00:27:13;100912.94;;;8.27;100.00
48846;BME280;34665;51.886;5.436;2022-12-08T00:29:42;100908.84;;;8.16;100.00
48846;BME280;34665;51.886;5.436;2022-12-08T00:32:08;100911.50;;;8.16;100.00
48846;BME280;34665;51.886;5.436;2022-12-08T00:34:33;100902.25;;;8.04;100.00
48846;BME280;34665;51.886;5.436;2022-12-08T00:36:59;100898.38;;;7.83;100.00
48846;BME280;34665;51.886;5.436;2022-12-08T00:39:25;100888.16;;;7.95;100.00
48846;BME280;34665;51.886;5.436;2022-12-08T00:41:51;100895.03;;;7.89;100.00
48846;BME280;34665;51.886;5.436;2022-12-08T00:44:35;100890.06;;;8.10;100.00
48846;BME280;34665;51.886;5.436;2022-12-08T00:47:01;100894.84;;;7.91;100.00
48846;BME280;34665;51.886;5.436;2022-12-08T00:49:26;100887.34;;;7.95;100.00
48846;BME280;34665;51.886;5.436;2022-12-08T00:51:52;100871.88;;;7.90;100.00
48846;BME280;34665;51.886;5.436;2022-12-08T00:54:17;100874.38;;;7.92;100.00
48846;BME280;34665;51.886;5.436;2022-12-08T00:56:44;100874.81;;;8.03;100.00
48846;BME280;34665;51.886;5.436;2022-12-08T00:59:10;100870.78;;;7.84;100.00
48846;BME280;34665;51.886;5.436;2022-12-08T01:01:37;100863.50;;;8.01;100.00
48846;BME280;34665;51.886;5.436;2022-12-08T01:04:07;100873.16;;;8.02;100.00
48846;BME280;34665;51.886;5.436;2022-12-08T01:06:34;100864.31;;;8.25;100.00
48846;BME280;34665;51.886;5.436;2022-12-08T01:09:04;100856.94;;;8.51;100.00
48846;BME280;34665;51.886;5.436;2022-12-08T01:11:30;100871.19;;;8.43;100.00
48846;BME280;34665;51.886;5.436;2022-12-08T01:13:56;100852.56;;;8.35;100.00
48846;BME280;34665;51.886;5.436;2022-12-08T01:16:23;100853.84;;;8.24;100.00
48846;BME280;34665;51.886;5.436;2022-12-08T01:18:50;100850.44;;;7.92;100.00
48846;BME280;34665;51.886;5.436;2022-12-08T01:21:15;100855.09;;;7.89;100.00
48846;BME280;34665;51.886;5.436;2022-12-08T01:23:41;100849.28;;;7.63;100.00
48846;BME280;34665;51.886;5.436;2022-12-08T01:26:09;100841.75;;;8.13;100.00
48846;BME280;34665;51.886;5.436;2022-12-08T01:28:36;100844.16;;;7.84;100.00
48846;BME280;34665;51.886;5.436;2022-12-08T01:31:02;100842.84;;;7.80;100.00
48846;BME280;34665;51.886;5.436;2022-12-08T01:33:27;100843.19;;;7.77;100.00
48846;BME280;34665;51.886;5.436;2022-12-08T01:35:53;100842.91;;;7.72;100.00
48846;BME280;34665;51.886;5.436;2022-12-08T01:38:20;100844.16;;;7.84;100.00
48846;BME280;34665;51.886;5.436;2022-12-08T01:40:46;100849.81;;;7.81;100.00
48846;BME280;34665;51.886;5.436;2022-12-08T01:43:18;100837.63;;;7.64;100.00
48846;BME280;34665;51.886;5.436;2022-12-08T01:45:44;100841.22;;;7.94;100.00
48846;BME280;34665;51.886;5.436;2022-12-08T01:48:14;100842.03;;;7.80;100.00
48846;BME280;34665;51.886;5.436;2022-12-08T01:50:43;100846.81;;;7.84;100.00
48846;BME280;34665;51.886;5.436;2022-12-08T01:53:25;100840.63;;;8.07;100.00
48846;BME280;34665;51.886;5.436;2022-12-08T01:56:10;100839.28;;;7.65;100.00
48846;BME280;34665;51.886;5.436;2022-12-08T01:58:40;100837.56;;;7.95;100.00
48846;BME280;34665;51.886;5.436;2022-12-08T02:01:08;100835.88;;;8.02;100.00
48846;BME280;34665;51.886;5.436;2022-12-08T02:03:49;100834.75;;;7.97;100.00
48846;BME280;34665;51.886;5.436;2022-12-08T02:06:16;100831.53;;;8.01;100.00
48846;BME280;34665;51.886;5.436;2022-12-08T02:08:43;100830.25;;;7.97;100.00
48846;BME280;34665;51.886;5.436;2022-12-08T02:11:11;100822.94;;;7.91;100.00
48846;BME280;34665;51.886;5.436;2022-12-08T02:13:37;100815.41;;;8.18;100.00
48846;BME280;34665;51.886;5.436;2022-12-08T02:16:05;100811.69;;;8.04;100.00
48846;BME280;34665;51.886;5.436;2022-12-08T02:24:31;100813.50;;;7.88;100.00
48846;BME280;34665;51.886;5.436;2022-12-08T02:30:01;100807.75;;;8.00;100.00
48846;BME280;34665;51.886;5.436;2022-12-08T02:38:20;100801.56;;;7.84;100.00
48846;BME280;34665;51.886;5.436;2022-12-08T02:41:18;100800.28;;;7.95;100.00
48846;BME280;34665;51.886;5.436;2022-12-08T02:46:42;100797.16;;;8.30;100.00
48846;BME280;34665;51.886;5.436;2022-12-08T02:49:09;100797.00;;;7.70;100.00
48846;BME280;34665;51.886;5.436;2022-12-08T02:51:37;100787.56;;;8.06;100.00
48846;BME280;34665;51.886;5.436;2022-12-08T02:54:02;100788.22;;;8.23;100.00
48846;BME280;34665;51.886;5.436;2022-12-08T03:02:08;100777.16;;;7.96;100.00
48846;BME280;34665;51.886;5.436;2022-12-08T03:05:02;100772.53;;;8.28;100.00
48846;BME280;34665;51.886;5.436;2022-12-08T03:07:43;100769.94;;;8.20;100.00
48846;BME280;34665;51.886;5.436;2022-12-08T03:10:26;100776.59;;;7.85;100.00
48846;BME280;34665;51.886;5.436;2022-12-08T03:13:21;100774.41;;;7.66;100.00
48846;BME280;34665;51.886;5.436;2022-12-08T03:15:48;100775.78;;;8.00;100.00
48846;BME280;34665;51.886;5.436;2022-12-08T03:18:16;100761.47;;;8.16;100.00
48846;BME280;34665;51.886;5.436;2022-12-08T03:20:45;100754.50;;;8.15;100.00
48846;BME280;34665;51.886;5.436;2022-12-08T03:23:13;100758.19;;;8.14;100.00
48846;BME280;34665;51.886;5.436;2022-12-08T03:25:47;100746.75;;;8.05;100.00
48846;BME280;34665;51.886;5.436;2022-12-08T03:28:16;100755.75;;;8.04;100.00
48846;BME280;34665;51.886;5.436;2022-12-08T03:30:43;100754.25;;;8.40;100.00
48846;BME280;34665;51.886;5.436;2022-12-08T03:33:24;100753.59;;;8.38;100.00
48846;BME280;34665;51.886;5.436;2022-12-08T03:35:51;100760.72;;;8.07;100.00
48846;BME280;34665;51.886;5.436;2022-12-08T03:38:18;100748.47;;;7.83;100.00
48846;BME280;34665;51.886;5.436;2022-12-08T03:40:44;100741.69;;;7.95;100.00
48846;BME280;34665;51.886;5.436;2022-12-08T03:43:29;100733.50;;;7.58;100.00
48846;BME280;34665;51.886;5.436;2022-12-08T03:45:55;100736.06;;;7.75;100.00
48846;BME280;34665;51.886;5.436;2022-12-08T03:48:20;100732.78;;;7.88;100.00
48846;BME280;34665;51.886;5.436;2022-12-08T03:50:46;100731.25;;;7.94;100.00
48846;BME280;34665;51.886;5.436;2022-12-08T03:53:11;100728.03;;;7.98;100.00
48846;BME280;34665;51.886;5.436;2022-12-08T03:55:37;100726.91;;;7.93;100.00
48846;BME280;34665;51.886;5.436;2022-12-08T03:58:02;100717.84;;;8.02;100.00
48846;BME280;34665;51.886;5.436;2022-12-08T04:00:28;100719.31;;;7.89;100.00
48846;BME280;34665;51.886;5.436;2022-12-08T04:02:53;100719.59;;;8.10;100.00
48846;BME280;34665;51.886;5.436;2022-12-08T04:05:19;100711.91;;;7.62;100.00
48846;BME280;34665;51.886;5.436;2022-12-08T04:07:44;100709.78;;;8.10;100.00
48846;BME280;34665;51.886;5.436;2022-12-08T04:10:10;100711.22;;;7.59;100.00
48846;BME280;34665;51.886;5.436;2022-12-08T04:12:35;100711.06;;;7.99;100.00
48846;BME280;34665;51.886;5.436;2022-12-08T04:15:00;100715.50;;;7.84;100.00
48846;BME280;34665;51.886;5.436;2022-12-08T04:17:26;100711.88;;;8.00;100.00
48846;BME280;34665;51.886;5.436;2022-12-08T04:19:51;100707.25;;;7.79;100.00
48846;BME280;34665;51.886;5.436;2022-12-08T04:22:17;100705.47;;;8.09;100.00
48846;BME280;34665;51.886;5.436;2022-12-08T04:24:42;100710.41;;;7.97;100.00
48846;BME280;34665;51.886;5.436;2022-12-08T04:27:08;100709.81;;;7.87;100.00
48846;BME280;34665;51.886;5.436;2022-12-08T04:29:33;100709.50;;;7.67;100.00
48846;BME280;34665;51.886;5.436;2022-12-08T04:31:59;100708.34;;;7.46;100.00
48846;BME280;34665;51.886;5.436;2022-12-08T04:34:24;100696.47;;;7.72;100.00
48846;BME280;34665;51.886;5.436;2022-12-08T04:36:50;100690.59;;;7.38;100.00
48846;BME280;34665;51.886;5.436;2022-12-08T04:39:15;100699.84;;;7.51;100.00
48846;BME280;34665;51.886;5.436;2022-12-08T04:45:31;100673.81;;;7.76;100.00
48846;BME280;34665;51.886;5.436;2022-12-08T04:47:59;100674.13;;;7.96;100.00
48846;BME280;34665;51.886;5.436;2022-12-08T04:50:24;100682.78;;;8.13;100.00
48846;BME280;34665;51.886;5.436;2022-12-08T04:52:50;100674.00;;;7.74;100.00
48846;BME280;34665;51.886;5.436;2022-12-08T04:55:16;100686.78;;;7.94;100.00
48846;BME280;34665;51.886;5.436;2022-12-08T04:57:42;100690.22;;;7.65;100.00
48846;BME280;34665;51.886;5.436;2022-12-08T05:00:08;100692.81;;;7.73;100.00
48846;BME280;34665;51.886;5.436;2022-12-08T05:02:35;100681.44;;;7.79;100.00
48846;BME280;34665;51.886;5.436;2022-12-08T05:05:01;100682.41;;;7.63;100.00
48846;BME280;34665;51.886;5.436;2022-12-08T05:07:26;100684.75;;;7.81;100.00
48846;BME280;34665;51.886;5.436;2022-12-08T05:09:52;100685.31;;;7.77;100.00
48846;BME280;34665;51.886;5.436;2022-12-08T05:12:17;100686.94;;;7.63;100.00
48846;BME280;34665;51.886;5.436;2022-12-08T05:14:43;100681.69;;;7.31;100.00
48846;BME280;34665;51.886;5.436;2022-12-08T05:17:08;100686.88;;;7.24;100.00
48846;BME280;34665;51.886;5.436;2022-12-08T05:19:34;100679.13;;;7.38;100.00
48846;BME280;34665;51.886;5.436;2022-12-08T05:21:59;100674.03;;;7.51;100.00
48846;BME280;34665;51.886;5.436;2022-12-08T05:24:25;100680.97;;;7.37;100.00
48846;BME280;34665;51.886;5.436;2022-12-08T05:26:50;100679.59;;;7.65;100.00
48846;BME280;34665;51.886;5.436;2022-12-08T05:29:16;100675.66;;;7.75;100.00
48846;BME280;34665;51.886;5.436;2022-12-08T05:31:42;100676.59;;;7.83;100.00
48846;BME280;34665;51.886;5.436;2022-12-08T05:34:07;100676.56;;;7.68;100.00
48846;BME280;34665;51.886;5.436;2022-12-08T05:36:33;100665.03;;;7.91;100.00
48846;BME280;34665;51.886;5.436;2022-12-08T05:38:58;100674.59;;;8.15;100.00
48846;BME280;34665;51.886;5.436;2022-12-08T05:41:23;100673.53;;;7.71;100.00
48846;BME280;34665;51.886;5.436;2022-12-08T05:43:49;100673.38;;;7.87;100.00
48846;BME280;34665;51.886;5.436;2022-12-08T05:46:15;100674.16;;;7.58;100.00
48846;BME280;34665;51.886;5.436;2022-12-08T05:48:41;100669.38;;;7.68;100.00
48846;BME280;34665;51.886;5.436;2022-12-08T05:51:18;100668.16;;;7.41;100.00
48846;BME280;34665;51.886;5.436;2022-12-08T05:53:45;100666.81;;;7.37;100.00
48846;BME280;34665;51.886;5.436;2022-12-08T05:56:10;100658.75;;;7.68;100.00
48846;BME280;34665;51.886;5.436;2022-12-08T05:58:36;100657.66;;;7.39;100.00
48846;BME280;34665;51.886;5.436;2022-12-08T06:01:01;100646.44;;;7.67;100.00
48846;BME280;34665;51.886;5.436;2022-12-08T06:03:28;100645.25;;;7.70;100.00
48846;BME280;34665;51.886;5.436;2022-12-08T06:05:54;100639.94;;;7.70;100.00
48846;BME280;34665;51.886;5.436;2022-12-08T06:08:19;100639.81;;;7.48;100.00
48846;BME280;34665;51.886;5.436;2022-12-08T06:10:45;100648.50;;;7.42;100.00
48846;BME280;34665;51.886;5.436;2022-12-08T06:13:11;100646.94;;;7.47;100.00
48846;BME280;34665;51.886;5.436;2022-12-08T06:15:38;100642.69;;;7.62;100.00
48846;BME280;34665;51.886;5.436;2022-12-08T06:18:04;100644.50;;;7.61;100.00
48846;BME280;34665;51.886;5.436;2022-12-08T06:20:30;100653.19;;;7.40;100.00
48846;BME280;34665;51.886;5.436;2022-12-08T06:22:57;100656.38;;;7.35;100.00
48846;BME280;34665;51.886;5.436;2022-12-08T06:25:23;100652.78;;;7.66;100.00
48846;BME280;34665;51.886;5.436;2022-12-08T06:27:48;100660.72;;;7.51;100.00
48846;BME280;34665;51.886;5.436;2022-12-08T06:30:14;100664.22;;;7.52;100.00
48846;BME280;34665;51.886;5.436;2022-12-08T06:32:40;100658.94;;;7.67;100.00
48846;BME280;34665;51.886;5.436;2022-12-08T06:35:06;100667.84;;;7.74;100.00
48846;BME280;34665;51.886;5.436;2022-12-08T06:37:32;100669.47;;;7.60;100.00
48846;BME280;34665;51.886;5.436;2022-12-08T06:39:57;100665.09;;;7.82;100.00
48846;BME280;34665;51.886;5.436;2022-12-08T06:42:23;100667.22;;;7.87;100.00
48846;BME280;34665;51.886;5.436;2022-12-08T06:45:08;100670.09;;;7.85;100.00
48846;BME280;34665;51.886;5.436;2022-12-08T06:47:33;100665.94;;;7.98;100.00
48846;BME280;34665;51.886;5.436;2022-12-08T06:49:59;100667.50;;;8.07;100.00
48846;BME280;34665;51.886;5.436;2022-12-08T06:52:25;100667.06;;;8.03;100.00
48846;BME280;34665;51.886;5.436;2022-12-08T06:54:50;100670.78;;;7.79;100.00
48846;BME280;34665;51.886;5.436;2022-12-08T06:57:16;100675.22;;;8.02;100.00
48846;BME280;34665;51.886;5.436;2022-12-08T06:59:43;100675.94;;;7.81;100.00
48846;BME280;34665;51.886;5.436;2022-12-08T07:02:09;100678.91;;;8.01;100.00
48846;BME280;34665;51.886;5.436;2022-12-08T07:04:36;100683.69;;;8.21;100.00
48846;BME280;34665;51.886;5.436;2022-12-08T07:07:02;100687.47;;;8.11;100.00
48846;BME280;34665;51.886;5.436;2022-12-08T07:09:27;100688.66;;;8.24;100.00
48846;BME280;34665;51.886;5.436;2022-12-08T07:11:53;100684.06;;;8.32;100.00
48846;BME280;34665;51.886;5.436;2022-12-08T07:14:18;100693.06;;;8.16;100.00
48846;BME280;34665;51.886;5.436;2022-12-08T07:16:47;100685.38;;;7.83;100.00
48846;BME280;34665;51.886;5.436;2022-12-08T07:19:13;100691.88;;;7.66;100.00
48846;BME280;34665;51.886;5.436;2022-12-08T07:21:39;100696.34;;;7.27;100.00
48846;BME280;34665;51.886;5.436;2022-12-08T07:24:05;100688.31;;;7.35;100.00
48846;BME280;34665;51.886;5.436;2022-12-08T07:26:30;100692.19;;;7.24;100.00
48846;BME280;34665;51.886;5.436;2022-12-08T07:28:55;100691.16;;;7.02;100.00
48846;BME280;34665;51.886;5.436;2022-12-08T07:31:23;100686.09;;;7.15;100.00
48846;BME280;34665;51.886;5.436;2022-12-08T07:33:49;100678.91;;;7.24;100.00
48846;BME280;34665;51.886;5.436;2022-12-08T07:36:15;100680.06;;;7.22;100.00
48846;BME280;34665;51.886;5.436;2022-12-08T07:38:41;100677.94;;;7.40;100.00
48846;BME280;34665;51.886;5.436;2022-12-08T07:41:16;100674.47;;;7.40;100.00
48846;BME280;34665;51.886;5.436;2022-12-08T07:43:42;100663.03;;;7.54;100.00
48846;BME280;34665;51.886;5.436;2022-12-08T07:46:12;100661.38;;;7.53;100.00
48846;BME280;34665;51.886;5.436;2022-12-08T07:48:38;100664.56;;;7.49;100.00
48846;BME280;34665;51.886;5.436;2022-12-08T07:51:04;100660.31;;;7.39;100.00
48846;BME280;34665;51.886;5.436;2022-12-08T07:53:30;100667.03;;;7.35;100.00
48846;BME280;34665;51.886;5.436;2022-12-08T07:55:56;100662.88;;;7.32;100.00
48846;BME280;34665;51.886;5.436;2022-12-08T07:58:22;100662.88;;;7.32;100.00
48846;BME280;34665;51.886;5.436;2022-12-08T08:00:47;100661.25;;;7.46;100.00
48846;BME280;34665;51.886;5.436;2022-12-08T08:03:13;100660.34;;;7.16;100.00
48846;BME280;34665;51.886;5.436;2022-12-08T08:05:39;100649.81;;;6.99;100.00
48846;BME280;34665;51.886;5.436;2022-12-08T08:08:05;100653.28;;;7.00;100.00
48846;BME280;34665;51.886;5.436;2022-12-08T08:10:31;100657.59;;;7.01;100.00
48846;BME280;34665;51.886;5.436;2022-12-08T08:12:59;100662.47;;;7.21;100.00
48846;BME280;34665;51.886;5.436;2022-12-08T08:15:25;100660.81;;;6.96;100.00
48846;BME280;34665;51.886;5.436;2022-12-08T08:17:50;100665.53;;;7.32;100.00
48846;BME280;34665;51.886;5.436;2022-12-08T08:20:17;100676.47;;;7.14;100.00
48846;BME280;34665;51.886;5.436;2022-12-08T08:22:45;100671.97;;;7.38;100.00
48846;BME280;34665;51.886;5.436;2022-12-08T08:25:10;100675.03;;;7.03;100.00
48846;BME280;34665;51.886;5.436;2022-12-08T08:27:36;100668.91;;;7.26;100.00
48846;BME280;34665;51.886;5.436;2022-12-08T08:30:03;100676.88;;;7.26;100.00
48846;BME280;34665;51.886;5.436;2022-12-08T08:32:32;100675.69;;;7.06;100.00
48846;BME280;34665;51.886;5.436;2022-12-08T08:34:58;100671.50;;;7.35;100.00
48846;BME280;34665;51.886;5.436;2022-12-08T08:37:24;100675.00;;;6.49;100.00
48846;BME280;34665;51.886;5.436;2022-12-08T08:39:49;100683.81;;;6.81;100.00
48846;BME280;34665;51.886;5.436;2022-12-08T08:42:14;100680.16;;;6.82;100.00
48846;BME280;34665;51.886;5.436;2022-12-08T08:44:40;100685.19;;;6.68;100.00
48846;BME280;34665;51.886;5.436;2022-12-08T08:47:05;100683.38;;;7.00;100.00
48846;BME280;34665;51.886;5.436;2022-12-08T08:49:31;100680.59;;;6.94;100.00
48846;BME280;34665;51.886;5.436;2022-12-08T08:51:56;100681.38;;;7.02;100.00
48846;BME280;34665;51.886;5.436;2022-12-08T08:54:22;100678.28;;;6.91;100.00
48846;BME280;34665;51.886;5.436;2022-12-08T08:56:47;100668.38;;;7.08;100.00
48846;BME280;34665;51.886;5.436;2022-12-08T08:59:13;100673.69;;;7.08;100.00
48846;BME280;34665;51.886;5.436;2022-12-08T09:01:39;100676.88;;;7.26;100.00
48846;BME280;34665;51.886;5.436;2022-12-08T09:04:04;100674.28;;;7.41;100.00
48846;BME280;34665;51.886;5.436;2022-12-08T09:06:30;100682.91;;;7.67;100.00
48846;BME280;34665;51.886;5.436;2022-12-08T09:08:56;100682.03;;;7.89;100.00
48846;BME280;34665;51.886;5.436;2022-12-08T09:11:21;100674.41;;;7.48;100.00
48846;BME280;34665;51.886;5.436;2022-12-08T09:13:49;100680.03;;;7.68;100.00
48846;BME280;34665;51.886;5.436;2022-12-08T09:16:15;100675.72;;;7.67;100.00
48846;BME280;34665;51.886;5.436;2022-12-08T09:18:42;100677.09;;;7.63;100.00
48846;BME280;34665;51.886;5.436;2022-12-08T09:21:10;100678.44;;;7.44;100.00
48846;BME280;34665;51.886;5.436;2022-12-08T09:23:37;100673.75;;;7.46;100.00
48846;BME280;34665;51.886;5.436;2022-12-08T09:26:03;100677.69;;;7.50;100.00
48846;BME280;34665;51.886;5.436;2022-12-08T09:28:30;100670.78;;;7.79;100.00
48846;BME280;34665;51.886;5.436;2022-12-08T09:30:56;100679.34;;;7.74;100.00
48846;BME280;34665;51.886;5.436;2022-12-08T09:33:21;100679.94;;;7.62;100.00
48846;BME280;34665;51.886;5.436;2022-12-08T09:35:47;100681.81;;;7.76;100.00
48846;BME280;34665;51.886;5.436;2022-12-08T09:38:12;100678.78;;;7.79;100.00
48846;BME280;34665;51.886;5.436;2022-12-08T09:40:48;100680.28;;;7.97;100.00
48846;BME280;34665;51.886;5.436;2022-12-08T09:43:45;100686.88;;;8.01;100.00
48846;BME280;34665;51.886;5.436;2022-12-08T09:46:16;100687.09;;;8.14;100.00
48846;BME280;34665;51.886;5.436;2022-12-08T09:48:50;100684.81;;;8.11;100.00
48846;BME280;34665;51.886;5.436;2022-12-08T09:51:27;100681.81;;;7.91;100.00
48846;BME280;34665;51.886;5.436;2022-12-08T09:54:06;100682.75;;;8.43;100.00
48846;BME280;34665;51.886;5.436;2022-12-08T09:56:35;100674.50;;;8.68;100.00
48846;BME280;34665;51.886;5.436;2022-12-08T09:59:05;100678.19;;;8.37;100.00
48846;BME280;34665;51.886;5.436;2022-12-08T10:01:40;100673.81;;;8.81;100.00
48846;BME280;34665;51.886;5.436;2022-12-08T10:04:28;100683.88;;;8.64;100.00
48846;BME280;34665;51.886;5.436;2022-12-08T10:07:12;100678.44;;;8.72;100.00
48846;BME280;34665;51.886;5.436;2022-12-08T10:09:52;100674.09;;;8.71;100.00
48846;BME280;34665;51.886;5.436;2022-12-08T10:17:28;100672.22;;;8.50;100.00
48846;BME280;34665;51.886;5.436;2022-12-08T10:20:05;100664.94;;;8.29;100.00
48846;BME280;34665;51.886;5.436;2022-12-08T10:22:35;100655.31;;;8.58;100.00
48846;BME280;34665;51.886;5.436;2022-12-08T10:25:53;100656.50;;;8.40;100.00
48846;BME280;34665;51.886;5.436;2022-12-08T10:27:53;100648.84;;;8.07;100.00
48846;BME280;34665;51.886;5.436;2022-12-08T10:30:19;100643.28;;;8.32;100.00
48846;BME280;34665;51.886;5.436;2022-12-08T10:32:48;100648.13;;;9.17;100.00
48846;BME280;34665;51.886;5.436;2022-12-08T10:35:16;100635.00;;;9.44;100.00
48846;BME280;34665;51.886;5.436;2022-12-08T10:37:56;100639.91;;;9.97;100.00
48846;BME280;34665;51.886;5.436;2022-12-08T10:40:22;100649.44;;;10.13;100.00
48846;BME280;34665;51.886;5.436;2022-12-08T10:42:54;100649.69;;;10.54;100.00
48846;BME280;34665;51.886;5.436;2022-12-08T10:45:36;100644.56;;;9.53;100.00
48846;BME280;34665;51.886;5.436;2022-12-08T10:48:05;100643.50;;;10.46;100.00
48846;BME280;34665;51.886;5.436;2022-12-08T10:50:52;100644.91;;;10.42;100.00
48846;BME280;34665;51.886;5.436;2022-12-08T10:53:27;100646.16;;;11.36;100.00
48846;BME280;34665;51.886;5.436;2022-12-08T10:58:32;100640.59;;;10.48;100.00
48846;BME280;34665;51.886;5.436;2022-12-08T11:01:08;100646.53;;;11.05;100.00
48846;BME280;34665;51.886;5.436;2022-12-08T11:03:43;100643.53;;;10.60;100.00
48846;BME280;34665;51.886;5.436;2022-12-08T11:06:20;100648.88;;;10.60;100.00
48846;BME280;34665;51.886;5.436;2022-12-08T11:08:54;100647.53;;;10.91;100.00
48846;BME280;34665;51.886;5.436;2022-12-08T11:11:21;100647.72;;;10.76;100.00
48846;BME280;34665;51.886;5.436;2022-12-08T11:13:49;100652.63;;;10.72;100.00
48846;BME280;34665;51.886;5.436;2022-12-08T11:16:17;100649.28;;;10.57;100.00
48846;BME280;34665;51.886;5.436;2022-12-08T11:18:46;100639.28;;;9.67;100.00
48846;BME280;34665;51.886;5.436;2022-12-08T11:21:19;100646.91;;;10.82;100.00
48846;BME280;34665;51.886;5.436;2022-12-08T11:23:49;100646.03;;;10.68;100.00
48846;BME280;34665;51.886;5.436;2022-12-08T11:26:25;100637.69;;;9.72;100.00
48846;BME280;34665;51.886;5.436;2022-12-08T11:28:52;100643.47;;;9.47;100.00
48846;BME280;34665;51.886;5.436;2022-12-08T11:31:24;100642.75;;;10.31;100.00
48846;BME280;34665;51.886;5.436;2022-12-08T11:33:51;100643.31;;;10.13;100.00
48846;BME280;34665;51.886;5.436;2022-12-08T11:36:19;100641.19;;;11.12;100.00
48846;BME280;34665;51.886;5.436;2022-12-08T11:38:47;100632.53;;;11.03;100.00
48846;BME280;34665;51.886;5.436;2022-12-08T11:41:19;100633.50;;;10.75;100.00
48846;BME280;34665;51.886;5.436;2022-12-08T11:44:04;100638.66;;;10.84;100.00
48846;BME280;34665;51.886;5.436;2022-12-08T11:46:43;100632.97;;;11.07;100.00
48846;BME280;34665;51.886;5.436;2022-12-08T11:49:12;100633.38;;;11.11;100.00
48846;BME280;34665;51.886;5.436;2022-12-08T11:51:55;100633.72;;;10.81;100.00
48846;BME280;34665;51.886;5.436;2022-12-08T11:54:34;100633.53;;;10.89;100.00
48846;BME280;34665;51.886;5.436;2022-12-08T11:57:09;100630.31;;;11.54;100.00
48846;BME280;34665;51.886;5.436;2022-12-08T11:59:39;100621.41;;;11.07;100.00
48846;BME280;34665;51.886;5.436;2022-12-08T12:02:13;100621.81;;;10.90;100.00
48846;BME280;34665;51.886;5.436;2022-12-08T12:04:48;100626.94;;;10.78;100.00
48846;BME280;34665;51.886;5.436;2022-12-08T12:07:41;100616.72;;;11.09;100.00
48846;BME280;34665;51.886;5.436;2022-12-08T12:13:03;100602.88;;;10.92;100.00
48846;BME280;34665;51.886;5.436;2022-12-08T12:18:24;100610.53;;;11.55;100.00
48846;BME280;34665;51.886;5.436;2022-12-08T12:21:05;100607.81;;;11.69;100.00
48846;BME280;34665;51.886;5.436;2022-12-08T12:26:04;100602.53;;;10.39;100.00
48846;BME280;34665;51.886;5.436;2022-12-08T12:28:42;100600.78;;;10.73;100.00
48846;BME280;34665;51.886;5.436;2022-12-08T12:31:11;100595.50;;;11.54;100.00
48846;BME280;34665;51.886;5.436;2022-12-08T12:33:41;100594.28;;;11.37;100.00
48846;BME280;34665;51.886;5.436;2022-12-08T12:36:08;100597.06;;;10.68;100.00
48846;BME280;34665;51.886;5.436;2022-12-08T12:38:36;100591.16;;;11.53;100.00
48846;BME280;34665;51.886;5.436;2022-12-08T12:41:24;100583.34;;;10.98;100.00
48846;BME280;34665;51.886;5.436;2022-12-08T12:46:51;100576.16;;;9.87;100.00
48846;BME280;34665;51.886;5.436;2022-12-08T13:02:21;100546.09;;;9.15;100.00
48846;BME280;34665;51.886;5.436;2022-12-08T13:07:24;100561.09;;;9.73;100.00
48846;BME280;34665;51.886;5.436;2022-12-08T13:10:01;100561.75;;;10.24;100.00
48846;BME280;34665;51.886;5.436;2022-12-08T13:12:27;100554.78;;;9.87;100.00
48846;BME280;34665;51.886;5.436;2022-12-08T13:15:03;100549.53;;;9.66;100.00
48846;BME280;34665;51.886;5.436;2022-12-08T13:17:35;100539.91;;;9.71;100.00
48846;BME280;34665;51.886;5.436;2022-12-08T13:20:04;100544.31;;;9.22;100.00
48846;BME280;34665;51.886;5.436;2022-12-08T13:25:44;100540.13;;;10.12;100.00
48846;BME280;34665;51.886;5.436;2022-12-08T13:28:19;100551.97;;;10.44;100.00
48846;BME280;34665;51.886;5.436;2022-12-08T13:30:48;100546.00;;;10.42;100.00
48846;BME280;34665;51.886;5.436;2022-12-08T13:33:30;100541.75;;;11.22;100.00
48846;BME280;34665;51.886;5.436;2022-12-08T13:38:32;100548.50;;;10.71;100.00
48846;BME280;34665;51.886;5.436;2022-12-08T13:41:03;100549.78;;;10.75;100.00
48846;BME280;34665;51.886;5.436;2022-12-08T13:43:39;100546.75;;;10.36;100.00
48846;BME280;34665;51.886;5.436;2022-12-08T13:46:08;100545.66;;;10.99;100.00
48846;BME280;34665;51.886;5.436;2022-12-08T13:48:44;100535.38;;;11.23;100.00
48846;BME280;34665;51.886;5.436;2022-12-08T13:51:18;100538.22;;;10.54;100.00
48846;BME280;34665;51.886;5.436;2022-12-08T13:54:07;100529.97;;;9.23;100.00
48846;BME280;34665;51.886;5.436;2022-12-08T13:56:38;100524.47;;;9.67;100.00
48846;BME280;34665;51.886;5.436;2022-12-08T13:59:22;100523.84;;;9.29;100.00
48846;BME280;34665;51.886;5.436;2022-12-08T14:01:49;100527.19;;;9.10;100.00
48846;BME280;34665;51.886;5.436;2022-12-08T14:04:15;100526.88;;;9.55;100.00
48846;BME280;34665;51.886;5.436;2022-12-08T14:06:44;100514.25;;;9.07;100.00